Evergreen, Virginia
Current Conditions -  °F | °C
As of 4:15 AM on Thursday 23 Oct 2014 (Local Time) from K0V4 Reporting Station
Clear Clear  
Wind Chill: 45°   Ceiling: Unl
Heat Index: 49°   Visibility: 10mi
Dew Point: 42°   Wind: 7mph
Humidity: 79%   Direction: 290°WNW
Pressure: 29.98"   Gusts: NA
Location:  37.32°N, 78.77°W
Report Text: K0V4 230815Z AUTO 29006KT 10SM CLR 09/06 A2998 RMK AO1 T00920058
Loading
Personal Weather Stations






























Interactive Weather Map
Tropical Storm Tracking
New forecast layout! Learn more

10-Day Weather Forecast

Advertisements
Track Severe Weather on mobile